sensor_id;sensor_type;location;lat;lon;timestamp;temperature;humidity
15259;DHT22;34462;51.368;12.364;2023-04-24T00:01:37;13.60;99.90
15259;DHT22;34462;51.368;12.364;2023-04-24T00:04:06;13.60;99.90
15259;DHT22;34462;51.368;12.364;2023-04-24T00:06:37;13.50;99.90
15259;DHT22;34462;51.368;12.364;2023-04-24T00:09:10;13.60;99.90
15259;DHT22;34462;51.368;12.364;2023-04-24T00:11:38;13.60;99.90
15259;DHT22;34462;51.368;12.364;2023-04-24T00:14:07;13.60;99.90
15259;DHT22;34462;51.368;12.364;2023-04-24T00:16:35;13.60;99.90
15259;DHT22;34462;51.368;12.364;2023-04-24T00:19:03;13.50;99.90
15259;DHT22;34462;51.368;12.364;2023-04-24T00:21:32;13.40;99.90
15259;DHT22;34462;51.368;12.364;2023-04-24T00:24:00;13.40;99.90
15259;DHT22;34462;51.368;12.364;2023-04-24T00:26:30;13.40;99.90
15259;DHT22;34462;51.368;12.364;2023-04-24T00:28:58;13.40;99.90
15259;DHT22;34462;51.368;12.364;2023-04-24T00:31:26;13.30;99.90
15259;DHT22;34462;51.368;12.364;2023-04-24T00:33:54;13.30;99.90
15259;DHT22;34462;51.368;12.364;2023-04-24T00:36:22;13.30;99.90
15259;DHT22;34462;51.368;12.364;2023-04-24T00:38:51;13.20;99.90
15259;DHT22;34462;51.368;12.364;2023-04-24T00:41:19;13.10;99.90
15259;DHT22;34462;51.368;12.364;2023-04-24T00:43:49;13.10;99.90
15259;DHT22;34462;51.368;12.364;2023-04-24T00:46:18;13.00;99.90
15259;DHT22;34462;51.368;12.364;2023-04-24T00:48:47;13.00;99.90
15259;DHT22;34462;51.368;12.364;2023-04-24T00:51:15;12.90;99.90
15259;DHT22;34462;51.368;12.364;2023-04-24T00:53:43;12.90;99.90
15259;DHT22;34462;51.368;12.364;2023-04-24T00:56:11;12.80;99.90
15259;DHT22;34462;51.368;12.364;2023-04-24T00:58:39;12.80;99.90
15259;DHT22;34462;51.368;12.364;2023-04-24T01:01:09;12.80;99.90
15259;DHT22;34462;51.368;12.364;2023-04-24T01:03:38;12.80;99.90
15259;DHT22;34462;51.368;12.364;2023-04-24T01:06:09;12.80;99.90
15259;DHT22;34462;51.368;12.364;2023-04-24T01:08:38;12.80;99.90
15259;DHT22;34462;51.368;12.364;2023-04-24T01:11:08;12.70;99.90
15259;DHT22;34462;51.368;12.364;2023-04-24T01:13:36;12.70;99.90
15259;DHT22;34462;51.368;12.364;2023-04-24T01:16:04;12.70;99.90
15259;DHT22;34462;51.368;12.364;2023-04-24T01:18:34;12.70;99.90
15259;DHT22;34462;51.368;12.364;2023-04-24T01:21:04;12.60;99.90
15259;DHT22;34462;51.368;12.364;2023-04-24T01:23:34;12.60;99.90
15259;DHT22;34462;51.368;12.364;2023-04-24T01:26:03;12.60;99.90
15259;DHT22;34462;51.368;12.364;2023-04-24T01:28:31;12.60;99.90
15259;DHT22;34462;51.368;12.364;2023-04-24T01:30:59;12.60;99.90
15259;DHT22;34462;51.368;12.364;2023-04-24T01:33:28;12.60;99.90
15259;DHT22;34462;51.368;12.364;2023-04-24T01:35:56;12.60;99.90
15259;DHT22;34462;51.368;12.364;2023-04-24T01:38:25;12.50;99.90
15259;DHT22;34462;51.368;12.364;2023-04-24T01:40:54;12.50;99.90
15259;DHT22;34462;51.368;12.364;2023-04-24T01:43:23;12.50;99.90
15259;DHT22;34462;51.368;12.364;2023-04-24T01:45:51;12.50;99.90
15259;DHT22;34462;51.368;12.364;2023-04-24T01:48:20;12.60;99.90
15259;DHT22;34462;51.368;12.364;2023-04-24T01:50:48;12.60;99.90
15259;DHT22;34462;51.368;12.364;2023-04-24T01:53:16;12.60;99.90
15259;DHT22;34462;51.368;12.364;2023-04-24T01:55:44;12.60;99.90
15259;DHT22;34462;51.368;12.364;2023-04-24T01:58:14;12.50;99.90
15259;DHT22;34462;51.368;12.364;2023-04-24T02:00:42;12.40;99.90
15259;DHT22;34462;51.368;12.364;2023-04-24T02:03:11;12.30;99.90
15259;DHT22;34462;51.368;12.364;2023-04-24T02:05:39;12.30;99.90
15259;DHT22;34462;51.368;12.364;2023-04-24T02:08:07;12.30;99.90
15259;DHT22;34462;51.368;12.364;2023-04-24T02:10:35;12.30;99.90
15259;DHT22;34462;51.368;12.364;2023-04-24T02:13:03;12.30;99.90
15259;DHT22;34462;51.368;12.364;2023-04-24T02:15:33;12.20;99.90
15259;DHT22;34462;51.368;12.364;2023-04-24T02:18:02;12.30;99.90
15259;DHT22;34462;51.368;12.364;2023-04-24T02:20:31;12.30;99.90
15259;DHT22;34462;51.368;12.364;2023-04-24T02:23:00;12.30;99.90
15259;DHT22;34462;51.368;12.364;2023-04-24T02:25:29;12.20;99.90
15259;DHT22;34462;51.368;12.364;2023-04-24T02:27:57;12.30;99.90
15259;DHT22;34462;51.368;12.364;2023-04-24T02:30:25;12.30;99.90
15259;DHT22;34462;51.368;12.364;2023-04-24T02:32:54;12.20;99.90
15259;DHT22;34462;51.368;12.364;2023-04-24T02:35:23;12.10;99.90
15259;DHT22;34462;51.368;12.364;2023-04-24T02:37:51;12.10;99.90
15259;DHT22;34462;51.368;12.364;2023-04-24T02:40:19;12.10;99.90
15259;DHT22;34462;51.368;12.364;2023-04-24T02:42:47;12.10;99.90
15259;DHT22;34462;51.368;12.364;2023-04-24T02:45:16;12.00;99.90
15259;DHT22;34462;51.368;12.364;2023-04-24T02:47:44;12.00;99.90
15259;DHT22;34462;51.368;12.364;2023-04-24T02:50:14;12.10;99.90
15259;DHT22;34462;51.368;12.364;2023-04-24T02:52:42;12.10;99.90
15259;DHT22;34462;51.368;12.364;2023-04-24T02:55:10;12.00;99.90
15259;DHT22;34462;51.368;12.364;2023-04-24T02:57:38;12.00;99.90
15259;DHT22;34462;51.368;12.364;2023-04-24T03:00:07;12.00;99.90
15259;DHT22;34462;51.368;12.364;2023-04-24T03:02:36;12.00;99.90
15259;DHT22;34462;51.368;12.364;2023-04-24T03:05:05;11.90;99.90
15259;DHT22;34462;51.368;12.364;2023-04-24T03:07:35;11.90;99.90
15259;DHT22;34462;51.368;12.364;2023-04-24T03:10:04;11.80;99.90
15259;DHT22;34462;51.368;12.364;2023-04-24T03:12:33;11.80;99.90
15259;DHT22;34462;51.368;12.364;2023-04-24T03:15:02;11.80;99.90
15259;DHT22;34462;51.368;12.364;2023-04-24T03:17:31;11.70;99.90
15259;DHT22;34462;51.368;12.364;2023-04-24T03:19:59;11.70;99.90
15259;DHT22;34462;51.368;12.364;2023-04-24T03:22:27;11.60;99.90
15259;DHT22;34462;51.368;12.364;2023-04-24T03:24:56;11.70;99.90
15259;DHT22;34462;51.368;12.364;2023-04-24T03:27:25;11.70;99.90
15259;DHT22;34462;51.368;12.364;2023-04-24T03:29:53;11.70;99.90
15259;DHT22;34462;51.368;12.364;2023-04-24T03:32:22;11.60;99.90
15259;DHT22;34462;51.368;12.364;2023-04-24T03:34:50;11.70;99.90
15259;DHT22;34462;51.368;12.364;2023-04-24T03:37:20;11.70;99.90
15259;DHT22;34462;51.368;12.364;2023-04-24T03:39:48;11.70;99.90
15259;DHT22;34462;51.368;12.364;2023-04-24T03:42:18;11.70;99.90
15259;DHT22;34462;51.368;12.364;2023-04-24T03:44:46;11.70;99.90
15259;DHT22;34462;51.368;12.364;2023-04-24T03:47:14;11.60;99.90
15259;DHT22;34462;51.368;12.364;2023-04-24T03:49:43;11.60;99.90
15259;DHT22;34462;51.368;12.364;2023-04-24T03:52:11;11.50;99.90
15259;DHT22;34462;51.368;12.364;2023-04-24T03:54:39;11.50;99.90
15259;DHT22;34462;51.368;12.364;2023-04-24T03:57:07;11.60;99.90
15259;DHT22;34462;51.368;12.364;2023-04-24T03:59:36;11.60;99.90
15259;DHT22;34462;51.368;12.364;2023-04-24T04:02:04;11.60;99.90
15259;DHT22;34462;51.368;12.364;2023-04-24T04:04:33;11.50;99.90
15259;DHT22;34462;51.368;12.364;2023-04-24T04:07:02;11.50;99.90
15259;DHT22;34462;51.368;12.364;2023-04-24T04:09:31;11.50;99.90
15259;DHT22;34462;51.368;12.364;2023-04-24T04:12:00;11.50;99.90
15259;DHT22;34462;51.368;12.364;2023-04-24T04:14:28;11.50;99.90
15259;DHT22;34462;51.368;12.364;2023-04-24T04:16:58;11.50;99.90
15259;DHT22;34462;51.368;12.364;2023-04-24T04:19:26;11.50;99.90
15259;DHT22;34462;51.368;12.364;2023-04-24T04:21:54;11.50;99.90
15259;DHT22;34462;51.368;12.364;2023-04-24T04:24:22;11.50;99.90
15259;DHT22;34462;51.368;12.364;2023-04-24T04:26:51;11.50;99.90
15259;DHT22;34462;51.368;12.364;2023-04-24T04:29:23;11.50;99.90
15259;DHT22;34462;51.368;12.364;2023-04-24T04:31:52;11.60;99.90
15259;DHT22;34462;51.368;12.364;2023-04-24T04:34:23;11.60;99.90
15259;DHT22;34462;51.368;12.364;2023-04-24T04:36:51;11.70;99.90
15259;DHT22;34462;51.368;12.364;2023-04-24T04:39:19;11.80;99.90
15259;DHT22;34462;51.368;12.364;2023-04-24T04:41:47;11.80;99.90
15259;DHT22;34462;51.368;12.364;2023-04-24T04:44:16;11.80;99.90
15259;DHT22;34462;51.368;12.364;2023-04-24T04:46:45;11.90;99.90
15259;DHT22;34462;51.368;12.364;2023-04-24T04:49:13;12.00;99.90
15259;DHT22;34462;51.368;12.364;2023-04-24T04:51:44;12.10;99.90
15259;DHT22;34462;51.368;12.364;2023-04-24T04:54:13;12.10;99.90
15259;DHT22;34462;51.368;12.364;2023-04-24T04:56:42;12.20;99.90
15259;DHT22;34462;51.368;12.364;2023-04-24T04:59:10;12.20;99.90
15259;DHT22;34462;51.368;12.364;2023-04-24T05:01:39;12.30;99.90
15259;DHT22;34462;51.368;12.364;2023-04-24T05:04:07;12.30;99.90
15259;DHT22;34462;51.368;12.364;2023-04-24T05:06:35;12.40;99.90
15259;DHT22;34462;51.368;12.364;2023-04-24T05:09:05;12.40;99.90
15259;DHT22;34462;51.368;12.364;2023-04-24T05:11:34;12.50;99.90
15259;DHT22;34462;51.368;12.364;2023-04-24T05:14:02;12.60;99.90
15259;DHT22;34462;51.368;12.364;2023-04-24T05:16:30;12.70;99.90
15259;DHT22;34462;51.368;12.364;2023-04-24T05:18:58;12.70;99.90
15259;DHT22;34462;51.368;12.364;2023-04-24T05:21:26;12.80;99.90
15259;DHT22;34462;51.368;12.364;2023-04-24T05:23:54;12.80;99.90
15259;DHT22;34462;51.368;12.364;2023-04-24T05:26:24;13.00;99.90
15259;DHT22;34462;51.368;12.364;2023-04-24T05:28:52;13.20;99.90
15259;DHT22;34462;51.368;12.364;2023-04-24T05:31:20;13.30;99.90
15259;DHT22;34462;51.368;12.364;2023-04-24T05:33:48;13.30;99.90
15259;DHT22;34462;51.368;12.364;2023-04-24T05:36:17;13.50;99.90
15259;DHT22;34462;51.368;12.364;2023-04-24T05:38:45;13.50;99.90
15259;DHT22;34462;51.368;12.364;2023-04-24T05:41:13;13.60;99.90
15259;DHT22;34462;51.368;12.364;2023-04-24T05:43:42;13.70;99.90
15259;DHT22;34462;51.368;12.364;2023-04-24T05:46:11;13.70;99.90
15259;DHT22;34462;51.368;12.364;2023-04-24T05:48:40;13.60;99.90
15259;DHT22;34462;51.368;12.364;2023-04-24T05:51:09;13.60;99.90
15259;DHT22;34462;51.368;12.364;2023-04-24T05:53:37;13.60;99.90
15259;DHT22;34462;51.368;12.364;2023-04-24T05:56:06;13.60;99.90
15259;DHT22;34462;51.368;12.364;2023-04-24T05:58:34;13.60;99.90
15259;DHT22;34462;51.368;12.364;2023-04-24T06:01:03;13.80;99.90
15259;DHT22;34462;51.368;12.364;2023-04-24T06:03:31;13.90;99.90
15259;DHT22;34462;51.368;12.364;2023-04-24T06:06:00;14.00;99.90
15259;DHT22;34462;51.368;12.364;2023-04-24T06:08:28;14.10;99.90
15259;DHT22;34462;51.368;12.364;2023-04-24T06:10:57;14.30;99.90
15259;DHT22;34462;51.368;12.364;2023-04-24T06:13:25;14.30;99.90
15259;DHT22;34462;51.368;12.364;2023-04-24T06:15:53;14.40;99.90
15259;DHT22;34462;51.368;12.364;2023-04-24T06:18:23;14.50;99.90
15259;DHT22;34462;51.368;12.364;2023-04-24T06:20:51;14.50;99.90
15259;DHT22;34462;51.368;12.364;2023-04-24T06:23:19;14.40;99.90
15259;DHT22;34462;51.368;12.364;2023-04-24T06:25:47;14.30;99.90
15259;DHT22;34462;51.368;12.364;2023-04-24T06:28:15;14.20;99.90
15259;DHT22;34462;51.368;12.364;2023-04-24T06:30:43;14.10;99.90
15259;DHT22;34462;51.368;12.364;2023-04-24T06:33:11;14.10;99.90
15259;DHT22;34462;51.368;12.364;2023-04-24T06:35:46;14.10;99.90
15259;DHT22;34462;51.368;12.364;2023-04-24T06:38:14;14.00;99.90
15259;DHT22;34462;51.368;12.364;2023-04-24T06:40:43;14.10;99.90
15259;DHT22;34462;51.368;12.364;2023-04-24T06:43:11;14.00;99.90
15259;DHT22;34462;51.368;12.364;2023-04-24T06:45:39;14.00;99.90
15259;DHT22;34462;51.368;12.364;2023-04-24T06:48:07;14.00;99.90
15259;DHT22;34462;51.368;12.364;2023-04-24T06:50:36;13.90;99.90
15259;DHT22;34462;51.368;12.364;2023-04-24T06:53:05;13.90;99.90
15259;DHT22;34462;51.368;12.364;2023-04-24T06:55:33;13.90;99.90
15259;DHT22;34462;51.368;12.364;2023-04-24T06:58:03;13.90;99.90
15259;DHT22;34462;51.368;12.364;2023-04-24T07:00:32;14.00;99.90
15259;DHT22;34462;51.368;12.364;2023-04-24T07:03:00;14.00;99.90
15259;DHT22;34462;51.368;12.364;2023-04-24T07:05:29;14.10;99.90
15259;DHT22;34462;51.368;12.364;2023-04-24T07:07:57;14.10;99.90
15259;DHT22;34462;51.368;12.364;2023-04-24T07:10:27;14.20;99.90
15259;DHT22;34462;51.368;12.364;2023-04-24T07:12:56;14.20;99.90
15259;DHT22;34462;51.368;12.364;2023-04-24T07:15:24;14.30;99.90
15259;DHT22;34462;51.368;12.364;2023-04-24T07:17:53;14.40;99.90
15259;DHT22;34462;51.368;12.364;2023-04-24T07:20:21;14.30;99.90
15259;DHT22;34462;51.368;12.364;2023-04-24T07:22:49;14.30;99.90
15259;DHT22;34462;51.368;12.364;2023-04-24T07:25:18;14.20;99.90
15259;DHT22;34462;51.368;12.364;2023-04-24T07:27:48;14.30;99.90
15259;DHT22;34462;51.368;12.364;2023-04-24T07:30:16;14.40;99.90
15259;DHT22;34462;51.368;12.364;2023-04-24T07:32:44;14.50;99.90
15259;DHT22;34462;51.368;12.364;2023-04-24T07:35:13;14.60;99.90
15259;DHT22;34462;51.368;12.364;2023-04-24T07:37:41;14.70;99.90
15259;DHT22;34462;51.368;12.364;2023-04-24T07:40:12;14.70;99.90
15259;DHT22;34462;51.368;12.364;2023-04-24T07:42:40;15.00;99.90
15259;DHT22;34462;51.368;12.364;2023-04-24T07:45:11;15.20;99.90
15259;DHT22;34462;51.368;12.364;2023-04-24T07:47:40;15.30;99.90
15259;DHT22;34462;51.368;12.364;2023-04-24T07:50:11;15.30;99.90
15259;DHT22;34462;51.368;12.364;2023-04-24T07:52:39;15.40;99.90
15259;DHT22;34462;51.368;12.364;2023-04-24T07:55:07;15.50;99.90
15259;DHT22;34462;51.368;12.364;2023-04-24T07:57:36;15.50;99.90
15259;DHT22;34462;51.368;12.364;2023-04-24T08:00:05;15.50;99.90
15259;DHT22;34462;51.368;12.364;2023-04-24T08:02:35;15.70;99.90
15259;DHT22;34462;51.368;12.364;2023-04-24T08:05:04;15.40;99.90
15259;DHT22;34462;51.368;12.364;2023-04-24T08:07:33;15.30;99.90
15259;DHT22;34462;51.368;12.364;2023-04-24T08:10:03;15.30;99.90
15259;DHT22;34462;51.368;12.364;2023-04-24T08:12:31;15.60;99.90
15259;DHT22;34462;51.368;12.364;2023-04-24T08:14:59;15.70;99.90
15259;DHT22;34462;51.368;12.364;2023-04-24T08:17:28;16.00;99.90
15259;DHT22;34462;51.368;12.364;2023-04-24T08:19:59;16.10;99.90
15259;DHT22;34462;51.368;12.364;2023-04-24T08:22:29;16.10;99.90
15259;DHT22;34462;51.368;12.364;2023-04-24T08:25:00;16.20;99.90
15259;DHT22;34462;51.368;12.364;2023-04-24T08:27:28;16.30;99.90
15259;DHT22;34462;51.368;12.364;2023-04-24T08:29:57;16.60;99.90
15259;DHT22;34462;51.368;12.364;2023-04-24T08:32:25;17.00;99.90
15259;DHT22;34462;51.368;12.364;2023-04-24T08:34:55;17.30;99.90
15259;DHT22;34462;51.368;12.364;2023-04-24T08:37:26;17.50;99.90
15259;DHT22;34462;51.368;12.364;2023-04-24T08:39:55;17.70;99.90
15259;DHT22;34462;51.368;12.364;2023-04-24T08:42:23;17.60;99.90
15259;DHT22;34462;51.368;12.364;2023-04-24T08:44:52;17.40;99.90
15259;DHT22;34462;51.368;12.364;2023-04-24T08:47:20;17.00;99.90
15259;DHT22;34462;51.368;12.364;2023-04-24T08:49:51;16.70;99.90
15259;DHT22;34462;51.368;12.364;2023-04-24T08:52:20;16.50;99.90
15259;DHT22;34462;51.368;12.364;2023-04-24T08:54:50;16.30;99.90
15259;DHT22;34462;51.368;12.364;2023-04-24T08:57:21;16.20;99.90
15259;DHT22;34462;51.368;12.364;2023-04-24T08:59:50;16.10;99.90
15259;DHT22;34462;51.368;12.364;2023-04-24T09:02:19;16.20;99.90
15259;DHT22;34462;51.368;12.364;2023-04-24T09:04:49;16.40;99.90
15259;DHT22;34462;51.368;12.364;2023-04-24T09:07:19;16.40;99.90
15259;DHT22;34462;51.368;12.364;2023-04-24T09:09:51;16.50;99.90
15259;DHT22;34462;51.368;12.364;2023-04-24T09:12:20;16.40;99.90
15259;DHT22;34462;51.368;12.364;2023-04-24T09:14:49;16.50;99.90
15259;DHT22;34462;51.368;12.364;2023-04-24T09:17:18;16.40;99.90
15259;DHT22;34462;51.368;12.364;2023-04-24T09:19:49;16.40;99.90
15259;DHT22;34462;51.368;12.364;2023-04-24T09:22:18;16.30;99.90
15259;DHT22;34462;51.368;12.364;2023-04-24T09:24:46;16.40;99.90
15259;DHT22;34462;51.368;12.364;2023-04-24T09:27:17;16.30;99.90
15259;DHT22;34462;51.368;12.364;2023-04-24T09:29:54;16.20;99.90
15259;DHT22;34462;51.368;12.364;2023-04-24T09:32:23;16.20;99.90
15259;DHT22;34462;51.368;12.364;2023-04-24T09:35:09;16.00;99.90
15259;DHT22;34462;51.368;12.364;2023-04-24T09:37:40;16.00;99.90
15259;DHT22;34462;51.368;12.364;2023-04-24T09:40:14;15.90;99.90
15259;DHT22;34462;51.368;12.364;2023-04-24T09:42:45;15.80;99.90
15259;DHT22;34462;51.368;12.364;2023-04-24T09:45:18;15.90;99.90
15259;DHT22;34462;51.368;12.364;2023-04-24T09:47:51;15.90;99.90
15259;DHT22;34462;51.368;12.364;2023-04-24T09:50:21;16.00;99.90
15259;DHT22;34462;51.368;12.364;2023-04-24T09:52:57;16.20;99.90
15259;DHT22;34462;51.368;12.364;2023-04-24T09:55:26;16.20;99.90
15259;DHT22;34462;51.368;12.364;2023-04-24T09:57:57;16.20;99.90
15259;DHT22;34462;51.368;12.364;2023-04-24T10:00:28;16.20;99.90
15259;DHT22;34462;51.368;12.364;2023-04-24T10:02:58;16.30;99.90
15259;DHT22;34462;51.368;12.364;2023-04-24T10:05:29;16.30;99.90
15259;DHT22;34462;51.368;12.364;2023-04-24T10:08:02;16.40;99.90
15259;DHT22;34462;51.368;12.364;2023-04-24T10:10:34;16.40;99.90
15259;DHT22;34462;51.368;12.364;2023-04-24T10:13:09;16.50;99.90
15259;DHT22;34462;51.368;12.364;2023-04-24T10:15:38;16.60;99.90
15259;DHT22;34462;51.368;12.364;2023-04-24T10:18:09;16.70;99.90
15259;DHT22;34462;51.368;12.364;2023-04-24T10:20:39;16.90;99.90
15259;DHT22;34462;51.368;12.364;2023-04-24T10:23:08;16.90;99.90
15259;DHT22;34462;51.368;12.364;2023-04-24T10:25:36;17.00;99.90
15259;DHT22;34462;51.368;12.364;2023-04-24T10:28:04;16.90;99.90
15259;DHT22;34462;51.368;12.364;2023-04-24T10:30:39;16.90;99.90
15259;DHT22;34462;51.368;12.364;2023-04-24T10:33:10;17.10;99.90
15259;DHT22;34462;51.368;12.364;2023-04-24T10:35:47;17.10;99.90
15259;DHT22;34462;51.368;12.364;2023-04-24T10:38:22;17.00;99.90
15259;DHT22;34462;51.368;12.364;2023-04-24T10:40:57;16.90;99.90
15259;DHT22;34462;51.368;12.364;2023-04-24T10:43:36;16.90;99.90
15259;DHT22;34462;51.368;12.364;2023-04-24T10:46:06;16.80;99.90
15259;DHT22;34462;51.368;12.364;2023-04-24T10:48:35;16.70;99.90
15259;DHT22;34462;51.368;12.364;2023-04-24T10:51:11;16.50;99.90
15259;DHT22;34462;51.368;12.364;2023-04-24T10:53:41;16.30;99.90
15259;DHT22;34462;51.368;12.364;2023-04-24T10:56:09;16.40;99.90
15259;DHT22;34462;51.368;12.364;2023-04-24T10:58:40;16.50;99.90
15259;DHT22;34462;51.368;12.364;2023-04-24T11:01:25;16.70;99.90
15259;DHT22;34462;51.368;12.364;2023-04-24T11:03:56;17.00;99.90
15259;DHT22;34462;51.368;12.364;2023-04-24T11:06:33;17.00;99.90
15259;DHT22;34462;51.368;12.364;2023-04-24T11:09:04;17.10;99.90
15259;DHT22;34462;51.368;12.364;2023-04-24T11:11:34;17.20;99.90
15259;DHT22;34462;51.368;12.364;2023-04-24T11:14:05;17.10;99.90
15259;DHT22;34462;51.368;12.364;2023-04-24T11:16:47;16.90;99.90
15259;DHT22;34462;51.368;12.364;2023-04-24T11:19:22;17.00;99.90
15259;DHT22;34462;51.368;12.364;2023-04-24T11:21:56;16.90;99.90
15259;DHT22;34462;51.368;12.364;2023-04-24T11:24:31;16.70;99.90
15259;DHT22;34462;51.368;12.364;2023-04-24T11:27:13;16.80;99.90
15259;DHT22;34462;51.368;12.364;2023-04-24T11:29:46;17.00;99.90
15259;DHT22;34462;51.368;12.364;2023-04-24T11:32:25;17.10;99.90
15259;DHT22;34462;51.368;12.364;2023-04-24T11:34:56;17.30;99.90
15259;DHT22;34462;51.368;12.364;2023-04-24T11:37:27;17.30;99.90
15259;DHT22;34462;51.368;12.364;2023-04-24T11:39:58;17.30;99.90
15259;DHT22;34462;51.368;12.364;2023-04-24T11:42:28;17.10;99.90
15259;DHT22;34462;51.368;12.364;2023-04-24T11:45:00;16.90;99.90
15259;DHT22;34462;51.368;12.364;2023-04-24T11:47:31;17.00;99.90
15259;DHT22;34462;51.368;12.364;2023-04-24T11:50:01;17.00;99.90
15259;DHT22;34462;51.368;12.364;2023-04-24T11:52:31;16.90;99.90
15259;DHT22;34462;51.368;12.364;2023-04-24T11:55:01;16.70;99.90
15259;DHT22;34462;51.368;12.364;2023-04-24T11:57:30;16.90;99.90
15259;DHT22;34462;51.368;12.364;2023-04-24T12:00:00;17.10;99.90
15259;DHT22;34462;51.368;12.364;2023-04-24T12:02:32;17.30;99.90
15259;DHT22;34462;51.368;12.364;2023-04-24T12:05:04;17.50;99.90
15259;DHT22;34462;51.368;12.364;2023-04-24T12:07:41;17.40;99.90
15259;DHT22;34462;51.368;12.364;2023-04-24T12:10:10;17.20;99.90
15259;DHT22;34462;51.368;12.364;2023-04-24T12:12:38;17.20;99.90
15259;DHT22;34462;51.368;12.364;2023-04-24T12:15:08;17.10;99.90
15259;DHT22;34462;51.368;12.364;2023-04-24T12:17:41;16.90;99.90
15259;DHT22;34462;51.368;12.364;2023-04-24T12:20:10;16.90;99.90
15259;DHT22;34462;51.368;12.364;2023-04-24T12:22:47;16.90;99.90
15259;DHT22;34462;51.368;12.364;2023-04-24T12:25:18;17.00;99.90
15259;DHT22;34462;51.368;12.364;2023-04-24T12:27:52;17.10;99.90
15259;DHT22;34462;51.368;12.364;2023-04-24T12:30:27;17.20;99.90
15259;DHT22;34462;51.368;12.364;2023-04-24T12:32:59;17.10;99.90
15259;DHT22;34462;51.368;12.364;2023-04-24T12:35:31;17.00;99.90
15259;DHT22;34462;51.368;12.364;2023-04-24T12:38:05;16.70;99.90
15259;DHT22;34462;51.368;12.364;2023-04-24T12:40:34;16.60;99.90
15259;DHT22;34462;51.368;12.364;2023-04-24T12:43:13;16.70;99.90
15259;DHT22;34462;51.368;12.364;2023-04-24T12:45:42;16.70;99.90
15259;DHT22;34462;51.368;12.364;2023-04-24T12:48:12;17.00;99.90
15259;DHT22;34462;51.368;12.364;2023-04-24T12:50:42;17.20;99.90
15259;DHT22;34462;51.368;12.364;2023-04-24T12:53:13;17.30;99.90
15259;DHT22;34462;51.368;12.364;2023-04-24T12:55:41;17.30;99.90
15259;DHT22;34462;51.368;12.364;2023-04-24T12:58:11;17.30;99.90
15259;DHT22;34462;51.368;12.364;2023-04-24T13:00:39;17.30;99.90
15259;DHT22;34462;51.368;12.364;2023-04-24T13:03:11;17.30;99.90
15259;DHT22;34462;51.368;12.364;2023-04-24T13:05:39;17.10;99.90
15259;DHT22;34462;51.368;12.364;2023-04-24T13:08:08;17.10;99.90
15259;DHT22;34462;51.368;12.364;2023-04-24T13:10:36;17.10;99.90
15259;DHT22;34462;51.368;12.364;2023-04-24T13:13:04;17.00;99.90
15259;DHT22;34462;51.368;12.364;2023-04-24T13:15:32;17.00;99.90
15259;DHT22;34462;51.368;12.364;2023-04-24T13:18:01;17.10;99.90
15259;DHT22;34462;51.368;12.364;2023-04-24T13:20:30;17.30;99.90
15259;DHT22;34462;51.368;12.364;2023-04-24T13:22:58;17.20;99.90
15259;DHT22;34462;51.368;12.364;2023-04-24T13:25:26;17.30;99.90
15259;DHT22;34462;51.368;12.364;2023-04-24T13:27:54;17.20;99.90
15259;DHT22;34462;51.368;12.364;2023-04-24T13:30:23;17.30;99.90
15259;DHT22;34462;51.368;12.364;2023-04-24T13:32:51;17.20;99.90
15259;DHT22;34462;51.368;12.364;2023-04-24T13:35:19;17.50;99.90
15259;DHT22;34462;51.368;12.364;2023-04-24T13:37:48;17.70;99.90
15259;DHT22;34462;51.368;12.364;2023-04-24T13:40:16;17.70;99.90
15259;DHT22;34462;51.368;12.364;2023-04-24T13:42:45;17.60;99.90
15259;DHT22;34462;51.368;12.364;2023-04-24T13:45:13;17.60;99.90
15259;DHT22;34462;51.368;12.364;2023-04-24T13:47:51;17.60;99.90
15259;DHT22;34462;51.368;12.364;2023-04-24T13:50:20;17.60;99.90
15259;DHT22;34462;51.368;12.364;2023-04-24T13:52:50;17.20;99.90
15259;DHT22;34462;51.368;12.364;2023-04-24T13:55:18;17.10;99.90
15259;DHT22;34462;51.368;12.364;2023-04-24T13:57:46;16.90;99.90
15259;DHT22;34462;51.368;12.364;2023-04-24T14:00:15;16.70;99.90
15259;DHT22;34462;51.368;12.364;2023-04-24T14:02:44;16.70;99.90
15259;DHT22;34462;51.368;12.364;2023-04-24T14:05:12;16.60;99.90
15259;DHT22;34462;51.368;12.364;2023-04-24T14:07:41;16.70;99.90
15259;DHT22;34462;51.368;12.364;2023-04-24T14:10:11;16.90;99.90
15259;DHT22;34462;51.368;12.364;2023-04-24T14:12:39;17.00;99.90
15259;DHT22;34462;51.368;12.364;2023-04-24T14:15:08;17.20;99.90
15259;DHT22;34462;51.368;12.364;2023-04-24T14:17:37;17.40;99.90
15259;DHT22;34462;51.368;12.364;2023-04-24T14:20:06;17.50;99.90
15259;DHT22;34462;51.368;12.364;2023-04-24T14:22:35;17.30;99.90
15259;DHT22;34462;51.368;12.364;2023-04-24T14:25:04;17.10;99.90
15259;DHT22;34462;51.368;12.364;2023-04-24T14:27:34;16.90;99.90
15259;DHT22;34462;51.368;12.364;2023-04-24T14:30:03;16.70;99.90
15259;DHT22;34462;51.368;12.364;2023-04-24T14:32:32;16.60;99.90
15259;DHT22;34462;51.368;12.364;2023-04-24T14:35:00;16.50;99.90
15259;DHT22;34462;51.368;12.364;2023-04-24T14:37:28;16.60;99.90
15259;DHT22;34462;51.368;12.364;2023-04-24T14:39:57;16.50;99.90
15259;DHT22;34462;51.368;12.364;2023-04-24T14:42:47;16.50;99.90
15259;DHT22;34462;51.368;12.364;2023-04-24T14:45:15;16.30;99.90
15259;DHT22;34462;51.368;12.364;2023-04-24T14:47:43;16.30;99.90
15259;DHT22;34462;51.368;12.364;2023-04-24T14:50:12;16.30;99.90
15259;DHT22;34462;51.368;12.364;2023-04-24T14:52:40;16.40;99.90
15259;DHT22;34462;51.368;12.364;2023-04-24T14:55:08;16.30;99.90
15259;DHT22;34462;51.368;12.364;2023-04-24T14:57:38;16.30;99.90
15259;DHT22;34462;51.368;12.364;2023-04-24T15:00:09;16.20;99.90
15259;DHT22;34462;51.368;12.364;2023-04-24T15:02:38;15.90;99.90
15259;DHT22;34462;51.368;12.364;2023-04-24T15:05:08;15.90;99.90
15259;DHT22;34462;51.368;12.364;2023-04-24T15:07:37;15.90;99.90
15259;DHT22;34462;51.368;12.364;2023-04-24T15:10:07;15.60;99.90
15259;DHT22;34462;51.368;12.364;2023-04-24T15:12:36;15.50;99.90
15259;DHT22;34462;51.368;12.364;2023-04-24T15:15:05;15.50;99.90
15259;DHT22;34462;51.368;12.364;2023-04-24T15:17:35;15.60;99.90
15259;DHT22;34462;51.368;12.364;2023-04-24T15:20:05;15.80;99.90
15259;DHT22;34462;51.368;12.364;2023-04-24T15:22:34;15.80;99.90
15259;DHT22;34462;51.368;12.364;2023-04-24T15:25:03;15.60;99.90
15259;DHT22;34462;51.368;12.364;2023-04-24T15:27:40;15.30;99.90
15259;DHT22;34462;51.368;12.364;2023-04-24T15:30:09;15.00;99.90